createdAt,value
2022-08-30T00:08:13.863Z,99670.91
2022-08-30T00:18:16.218Z,99675.22
2022-08-30T00:28:17.959Z,99679.66
2022-08-30T00:38:19.645Z,99668.28
2022-08-30T00:48:21.446Z,99688.25
2022-08-30T00:58:27.521Z,99671.47
2022-08-30T01:08:29.226Z,99683.84
2022-08-30T01:18:32.298Z,99687.56
2022-08-30T01:28:35.350Z,99692.50
2022-08-30T01:38:40.281Z,99689.25
2022-08-30T01:48:42.364Z,99690.59
2022-08-30T01:58:52.613Z,99699.53
2022-08-30T02:08:54.634Z,99715.34
2022-08-30T02:18:59.256Z,99717.09
2022-08-30T02:29:01.134Z,99711.50
2022-08-30T02:39:03.074Z,99723.75
2022-08-30T02:49:29.964Z,99725.94
2022-08-30T02:59:27.146Z,99739.22
2022-08-30T03:09:29.122Z,99736.09
2022-08-30T03:19:30.914Z,99753.84
2022-08-30T03:29:32.605Z,99752.69
2022-08-30T03:39:34.501Z,99772.22
2022-08-30T03:49:36.564Z,99784.56
2022-08-30T03:59:38.457Z,99792.22
2022-08-30T04:09:40.206Z,99803.66
2022-08-30T04:19:41.987Z,99803.53
2022-08-30T04:29:44.414Z,99793.84
2022-08-30T04:39:46.791Z,99790.94
2022-08-30T04:49:48.790Z,99802.06
2022-08-30T04:59:50.537Z,99808.06
2022-08-30T05:09:52.505Z,99807.72
2022-08-30T05:19:54.218Z,99805.03
2022-08-30T05:29:56.086Z,99804.41
2022-08-30T05:39:58.885Z,99803.50
2022-08-30T05:50:01.619Z,99809.66
2022-08-30T06:00:06.635Z,99795.94
2022-08-30T06:10:10.227Z,99810.41
2022-08-30T06:20:12.387Z,99822.25
2022-08-30T06:30:15.195Z,99814.63
2022-08-30T06:40:21.925Z,99818.34
2022-08-30T06:50:26.279Z,99817.38
2022-08-30T07:00:28.071Z,99840.97
2022-08-30T07:10:30.148Z,99849.13
2022-08-30T07:20:40.556Z,99850.94
2022-08-30T07:30:42.677Z,99842.03
2022-08-30T07:40:44.444Z,99831.75
2022-08-30T07:50:46.983Z,99850.72
2022-08-30T08:00:49.014Z,99834.78
2022-08-30T08:10:50.767Z,99828.72
2022-08-30T08:20:55.994Z,99835.16
2022-08-30T08:30:59.269Z,99834.41
2022-08-30T08:41:24.726Z,99834.59
2022-08-30T08:51:47.873Z,99837.28
2022-08-30T09:12:33.748Z,99831.00
2022-08-30T09:22:37.948Z,99838.72
2022-08-30T09:32:46.901Z,99834.97
2022-08-30T09:43:01.754Z,99819.59
2022-08-30T09:53:35.172Z,99814.19
2022-08-30T10:03:43.784Z,99820.41
2022-08-30T10:13:45.526Z,99816.06
2022-08-30T10:23:51.272Z,99816.75
2022-08-30T10:33:55.331Z,99813.78
2022-08-30T10:43:59.878Z,99807.47
2022-08-30T10:54:20.429Z,99797.06
2022-08-30T11:04:22.181Z,99789.66
2022-08-30T11:14:25.348Z,99783.84
2022-08-30T11:24:27.536Z,99781.78
2022-08-30T11:34:47.826Z,99769.47
2022-08-30T11:44:49.580Z,99768.34
2022-08-30T11:55:09.935Z,99752.28
2022-08-30T12:05:30.745Z,99749.59
2022-08-30T12:15:51.287Z,99742.69
2022-08-30T12:26:30.467Z,99743.75
2022-08-30T12:36:32.198Z,99738.47
2022-08-30T12:46:34.046Z,99727.19
2022-08-30T12:56:56.645Z,99720.91
2022-08-30T13:06:59.617Z,99708.66
2022-08-30T13:17:20.420Z,99698.16
2022-08-30T13:27:22.617Z,99693.56
2022-08-30T13:47:50.488Z,99692.44
2022-08-30T13:57:54.165Z,99682.34
2022-08-30T14:07:57.130Z,99674.59
2022-08-30T14:17:59.496Z,99665.31
2022-08-30T14:28:01.392Z,99663.84
2022-08-30T14:38:03.963Z,99646.88
2022-08-30T14:48:11.337Z,99643.94
2022-08-30T14:58:17.948Z,99641.25
2022-08-30T15:08:19.993Z,99628.94
2022-08-30T15:18:23.370Z,99632.22
2022-08-30T15:28:25.947Z,99631.06
2022-08-30T15:38:28.498Z,99613.31
2022-08-30T15:48:31.519Z,99612.88
2022-08-30T15:58:33.146Z,99609.59
2022-08-30T16:08:34.942Z,99613.06
2022-08-30T16:18:37.624Z,99626.59
2022-08-30T16:28:39.437Z,99633.72
2022-08-30T16:38:42.631Z,99639.53
2022-08-30T16:48:45.272Z,99647.22
2022-08-30T16:58:47.788Z,99663.28
2022-08-30T17:08:49.580Z,99669.16
2022-08-30T17:19:00.607Z,99687.44
2022-08-30T17:29:03.103Z,99695.31
2022-08-30T17:39:11.052Z,99709.66
2022-08-30T17:49:13.354Z,99715.91
2022-08-30T17:59:17.797Z,99728.94
2022-08-30T18:09:19.692Z,99741.28
2022-08-30T18:19:26.048Z,99747.72
2022-08-30T18:29:31.491Z,99752.78
2022-08-30T18:39:34.989Z,99748.06
2022-08-30T18:49:37.112Z,99747.97
2022-08-30T18:59:42.050Z,99752.81
2022-08-30T19:09:45.335Z,99749.56
2022-08-30T19:19:49.251Z,99751.81
2022-08-30T19:40:33.864Z,99751.28
2022-08-30T19:50:37.043Z,99742.94
2022-08-30T20:00:39.275Z,99745.94
2022-08-30T20:10:55.339Z,99750.03
2022-08-30T20:20:57.257Z,99751.28
2022-08-30T20:30:59.589Z,99747.00
2022-08-30T20:41:02.842Z,99748.50
2022-08-30T20:51:07.917Z,99756.16
2022-08-30T21:01:10.803Z,99751.25
2022-08-30T21:11:12.979Z,99762.34
2022-08-30T21:21:16.395Z,99763.81
2022-08-30T21:31:22.961Z,99763.75
2022-08-30T21:41:25.233Z,99761.56
2022-08-30T21:51:29.461Z,99757.19
2022-08-30T22:01:31.662Z,99733.09
2022-08-30T22:11:34.464Z,99738.56
2022-08-30T22:21:37.205Z,99741.53
2022-08-30T22:31:41.267Z,99736.00
2022-08-30T22:41:44.355Z,99728.22
2022-08-30T22:51:46.031Z,99739.03
2022-08-30T23:01:47.777Z,99731.22
2022-08-30T23:11:49.712Z,99730.25
2022-08-30T23:21:51.380Z,99730.06
2022-08-30T23:32:11.751Z,99727.59
2022-08-30T23:42:31.948Z,99729.31
2022-08-30T23:52:51.978Z,99720.72
